createdAt,value
2018-04-25T00:01:25.601Z,100498.00
2018-04-25T00:03:51.345Z,100498.37
2018-04-25T00:06:17.068Z,100495.44
2018-04-25T00:08:42.804Z,100486.55
2018-04-25T00:11:08.526Z,100476.00
2018-04-25T00:13:34.267Z,100479.37
2018-04-25T00:16:00.020Z,100467.14
2018-04-25T00:18:25.749Z,100466.05
2018-04-25T00:20:51.473Z,100468.09
2018-04-25T00:23:17.208Z,100466.84
2018-04-25T00:25:42.953Z,100469.92
2018-04-25T00:28:08.698Z,100464.13
2018-04-25T00:30:34.429Z,100465.23
2018-04-25T00:33:00.157Z,100445.36
2018-04-25T00:35:25.872Z,100426.50
2018-04-25T00:37:51.609Z,100431.70
2018-04-25T00:40:17.339Z,100422.51
2018-04-25T00:42:43.076Z,100416.87
2018-04-25T00:45:08.809Z,100403.33
2018-04-25T00:47:34.568Z,100390.08
2018-04-25T00:50:00.300Z,100389.60
2018-04-25T00:52:26.034Z,100384.77
2018-04-25T00:54:51.772Z,100368.11
2018-04-25T00:57:17.508Z,100363.64
2018-04-25T00:59:43.245Z,100352.66
2018-04-25T01:02:08.973Z,100346.14
2018-04-25T01:04:34.729Z,100338.28
2018-04-25T01:07:00.466Z,100338.87
2018-04-25T01:09:26.202Z,100339.19
2018-04-25T01:11:52.264Z,100333.05
2018-04-25T01:14:17.881Z,100330.01
2018-04-25T01:16:43.612Z,100321.98
2018-04-25T01:19:09.337Z,100303.12
2018-04-25T01:21:35.048Z,100300.09
2018-04-25T01:24:00.784Z,100288.75
2018-04-25T01:26:26.496Z,100296.98
2018-04-25T01:28:52.220Z,100287.03
2018-04-25T01:31:17.951Z,100279.77
2018-04-25T01:33:43.674Z,100274.97
2018-04-25T01:36:12.168Z,100267.47
2018-04-25T01:38:38.745Z,100258.45
2018-04-25T01:41:05.407Z,100254.37
2018-04-25T01:43:31.155Z,100238.47
2018-04-25T01:46:06.950Z,100238.52
2018-04-25T01:48:32.687Z,100225.64
2018-04-25T01:50:58.300Z,100224.33
2018-04-25T01:53:36.558Z,100213.20
2018-04-25T01:56:14.800Z,100203.50
2018-04-25T01:58:53.012Z,100190.94
2018-04-25T02:01:18.642Z,100193.52
2018-04-25T02:03:57.603Z,100182.45
2018-04-25T02:06:23.332Z,100168.03
2018-04-25T02:08:49.060Z,100163.81
2018-04-25T02:11:14.784Z,100157.61
2018-04-25T02:13:40.512Z,100158.74
2018-04-25T02:16:06.232Z,100153.28
2018-04-25T02:18:33.898Z,100143.66
2018-04-25T02:20:59.658Z,100129.64
2018-04-25T02:23:25.413Z,100116.25
2018-04-25T02:25:51.153Z,100114.70
2018-04-25T02:28:16.885Z,100105.81
2018-04-25T02:30:42.622Z,100099.45
2018-04-25T02:33:08.361Z,100088.30
2018-04-25T02:35:34.096Z,100080.69
2018-04-25T02:37:59.833Z,100076.19
2018-04-25T02:40:25.577Z,100062.94
2018-04-25T02:42:51.305Z,100062.79
2018-04-25T02:45:17.044Z,100057.30
2018-04-25T02:47:42.775Z,100061.20
2018-04-25T02:50:08.529Z,100057.52
2018-04-25T02:52:34.273Z,100051.70
2018-04-25T02:55:00.025Z,100038.84
2018-04-25T02:57:25.760Z,100032.08
2018-04-25T02:59:51.509Z,100035.38
2018-04-25T03:02:17.256Z,100019.82
2018-04-25T03:04:43.005Z,100018.88
2018-04-25T03:07:08.746Z,100005.34
2018-04-25T03:09:34.476Z,100005.06
2018-04-25T03:12:00.197Z,100005.34
2018-04-25T03:14:25.933Z,99992.39
2018-04-25T03:16:51.678Z,99987.33
2018-04-25T03:19:17.425Z,99981.86
2018-04-25T03:21:43.153Z,99977.19
2018-04-25T03:24:08.885Z,99977.04
2018-04-25T03:26:34.624Z,99967.99
2018-04-25T03:29:00.379Z,99959.31
2018-04-25T03:31:26.119Z,99957.42
2018-04-25T03:33:51.829Z,99956.70
2018-04-25T03:36:17.585Z,99941.51
2018-04-25T03:38:43.328Z,99932.02
2018-04-25T03:41:09.160Z,99934.98
2018-04-25T03:43:34.820Z,99925.35
2018-04-25T03:46:00.568Z,99921.56
2018-04-25T03:48:26.300Z,99922.77
2018-04-25T03:50:52.045Z,99917.67
2018-04-25T03:53:17.811Z,99913.99
2018-04-25T03:55:43.560Z,99902.03
2018-04-25T03:58:09.301Z,99899.65
2018-04-25T04:00:35.043Z,99891.89
2018-04-25T04:03:00.786Z,99900.18
2018-04-25T04:05:26.541Z,99889.09
2018-04-25T04:07:52.277Z,99885.83
2018-04-25T04:10:18.021Z,99883.86
2018-04-25T04:12:43.761Z,99878.30
2018-04-25T04:15:09.509Z,99877.34
2018-04-25T04:17:35.251Z,99876.27
2018-04-25T04:20:01.014Z,99871.64
2018-04-25T04:22:26.752Z,99885.55
2018-04-25T04:24:52.565Z,99876.28
2018-04-25T04:27:18.251Z,99864.80
2018-04-25T04:29:44.001Z,99855.87
2018-04-25T04:32:09.732Z,99867.17
2018-04-25T04:34:35.492Z,99862.88
2018-04-25T04:37:01.248Z,99866.34
2018-04-25T04:39:26.993Z,99866.48
2018-04-25T04:41:52.740Z,99863.00
2018-04-25T04:44:18.470Z,99842.50
2018-04-25T04:46:44.225Z,99851.88
2018-04-25T04:49:09.973Z,99858.48
2018-04-25T04:51:35.738Z,99851.55
2018-04-25T04:54:01.480Z,99863.28
2018-04-25T04:56:27.228Z,99856.12
2018-04-25T04:58:52.952Z,99854.03
2018-04-25T05:01:18.696Z,99856.23
2018-04-25T05:03:44.438Z,99848.64
2018-04-25T05:06:10.180Z,99847.31
2018-04-25T05:08:35.941Z,99845.64
2018-04-25T05:11:01.688Z,99851.45
2018-04-25T05:13:27.426Z,99848.25
2018-04-25T05:15:53.197Z,99848.68
2018-04-25T05:18:18.954Z,99842.89
2018-04-25T05:20:44.691Z,99845.75
2018-04-25T05:23:10.429Z,99829.88
2018-04-25T05:25:36.172Z,99828.02
2018-04-25T05:28:01.916Z,99834.45
2018-04-25T05:30:27.673Z,99827.34
2018-04-25T05:32:53.413Z,99827.58
2018-04-25T05:35:19.164Z,99827.58
2018-04-25T05:37:44.892Z,99827.58
2018-04-25T05:40:10.637Z,99828.30
2018-04-25T05:42:36.370Z,99823.00
2018-04-25T05:45:02.116Z,99832.66
2018-04-25T05:47:27.868Z,99829.41
2018-04-25T05:49:53.600Z,99832.08
2018-04-25T05:52:19.333Z,99825.84
2018-04-25T05:54:45.090Z,99816.25
2018-04-25T05:57:10.843Z,99821.84
2018-04-25T05:59:36.588Z,99825.37
2018-04-25T06:02:02.341Z,99817.78
2018-04-25T06:04:28.075Z,99820.59
2018-04-25T06:06:53.820Z,99816.61
2018-04-25T06:09:19.564Z,99812.19
2018-04-25T06:11:45.332Z,99811.09
2018-04-25T06:14:11.068Z,99811.53
2018-04-25T06:16:36.821Z,99805.59
2018-04-25T06:19:02.568Z,99806.26
2018-04-25T06:21:28.329Z,99793.86
2018-04-25T06:23:54.074Z,99798.64
2018-04-25T06:26:19.828Z,99790.34
2018-04-25T06:28:45.567Z,99787.52
2018-04-25T06:31:11.344Z,99781.48
2018-04-25T06:33:37.073Z,99788.11
2018-04-25T06:36:02.822Z,99790.31
2018-04-25T06:38:28.566Z,99792.41
2018-04-25T06:40:54.321Z,99781.80
2018-04-25T06:43:20.048Z,99781.36
2018-04-25T06:45:45.784Z,99769.99
2018-04-25T06:48:11.527Z,99775.66
2018-04-25T06:50:37.363Z,99771.75
2018-04-25T06:53:03.053Z,99773.08
2018-04-25T06:55:28.794Z,99770.15
2018-04-25T06:57:54.552Z,99768.16
2018-04-25T07:00:20.272Z,99773.56
2018-04-25T07:02:46.021Z,99779.69
2018-04-25T07:05:11.759Z,99782.91
2018-04-25T07:07:37.508Z,99774.47
2018-04-25T07:10:03.244Z,99773.84
2018-04-25T07:12:28.968Z,99775.25
2018-04-25T07:14:54.702Z,99767.62
2018-04-25T07:17:20.452Z,99777.29
2018-04-25T07:19:46.202Z,99772.98
2018-04-25T07:22:11.956Z,99773.33
2018-04-25T07:24:37.697Z,99774.98
2018-04-25T07:27:03.432Z,99773.17
2018-04-25T07:29:29.215Z,99773.70
2018-04-25T07:31:54.928Z,99778.10
2018-04-25T07:34:20.660Z,99771.38
2018-04-25T07:36:46.435Z,99777.69
2018-04-25T07:39:12.186Z,99777.31
2018-04-25T07:41:37.943Z,99779.33
2018-04-25T07:44:03.669Z,99784.93
2018-04-25T07:46:29.400Z,99796.94
2018-04-25T07:48:55.130Z,99792.16
2018-04-25T07:51:20.864Z,99795.06
2018-04-25T07:53:46.592Z,99785.27
2018-04-25T07:56:12.328Z,99792.78
2018-04-25T07:58:38.052Z,99785.67
2018-04-25T08:01:03.787Z,99783.50
2018-04-25T08:03:29.552Z,99788.31
2018-04-25T08:05:55.306Z,99787.05
2018-04-25T08:08:21.037Z,99791.56
2018-04-25T08:10:46.761Z,99784.99
2018-04-25T08:13:24.880Z,99789.80
2018-04-25T08:16:03.080Z,99785.11
2018-04-25T08:18:41.265Z,99791.56
2018-04-25T08:21:19.425Z,99790.37
2018-04-25T08:23:45.206Z,99790.06
2018-04-25T08:26:10.912Z,99805.92
2018-04-25T08:28:36.659Z,99805.05
2018-04-25T08:31:02.403Z,99805.98
2018-04-25T08:33:28.151Z,99818.44
2018-04-25T08:35:53.868Z,99829.55
2018-04-25T08:38:19.608Z,99837.97
2018-04-25T08:40:45.352Z,99846.90
2018-04-25T08:43:11.087Z,99856.42
2018-04-25T08:45:36.817Z,99861.52
2018-04-25T08:48:02.556Z,99854.35
2018-04-25T08:50:28.292Z,99858.59
2018-04-25T08:52:54.032Z,99867.81
2018-04-25T08:55:19.777Z,99870.55
2018-04-25T08:57:45.525Z,99876.77
2018-04-25T09:00:11.264Z,99867.92
2018-04-25T09:02:36.992Z,99880.83
2018-04-25T09:05:02.744Z,99883.22
2018-04-25T09:07:28.512Z,99888.77
2018-04-25T09:09:54.244Z,99892.00
2018-04-25T09:12:19.997Z,99890.62
2018-04-25T09:14:45.750Z,99902.35
2018-04-25T09:17:11.496Z,99901.30
2018-04-25T09:19:37.224Z,99914.25
2018-04-25T09:22:02.965Z,99914.78
2018-04-25T09:24:28.742Z,99913.72
2018-04-25T09:26:54.476Z,99916.89
2018-04-25T09:29:20.229Z,99921.70
2018-04-25T09:31:45.981Z,99927.47
2018-04-25T09:34:11.720Z,99929.47
2018-04-25T09:36:37.456Z,99935.12
2018-04-25T09:39:03.227Z,99936.33
2018-04-25T09:41:28.961Z,99934.46
2018-04-25T09:43:54.715Z,99949.21
2018-04-25T09:46:20.460Z,99947.50
2018-04-25T09:48:46.217Z,99957.70
2018-04-25T09:51:11.960Z,99961.36
2018-04-25T09:53:37.710Z,99973.02
2018-04-25T09:56:03.459Z,99981.08
2018-04-25T09:58:29.208Z,99980.00
2018-04-25T10:00:56.891Z,99992.11
2018-04-25T10:03:22.671Z,99991.80
2018-04-25T10:05:48.448Z,99995.92
2018-04-25T10:08:14.192Z,100001.55
2018-04-25T10:10:39.937Z,99998.36
2018-04-25T10:13:05.680Z,100006.52
2018-04-25T10:15:31.403Z,100010.94
2018-04-25T10:17:57.157Z,100023.64
2018-04-25T10:20:22.873Z,100021.30
2018-04-25T10:22:48.646Z,100029.40
2018-04-25T10:25:14.381Z,100061.64
2018-04-25T10:27:40.111Z,100086.45
2018-04-25T10:30:05.861Z,100104.39
2018-04-25T10:32:31.588Z,100117.22
2018-04-25T10:34:57.334Z,100119.49
2018-04-25T10:37:23.064Z,100142.59
2018-04-25T10:39:48.849Z,100144.63
2018-04-25T10:42:14.594Z,100166.27
2018-04-25T10:44:40.327Z,100169.54
2018-04-25T10:47:06.080Z,100189.05
2018-04-25T10:49:31.824Z,100194.83
2018-04-25T10:51:57.555Z,100217.53
2018-04-25T10:54:23.312Z,100228.67
2018-04-25T10:56:49.053Z,100254.07
2018-04-25T10:59:14.805Z,100263.73
2018-04-25T11:01:40.544Z,100276.39
2018-04-25T11:04:06.287Z,100298.58
2018-04-25T11:06:32.031Z,100302.70
2018-04-25T11:08:57.768Z,100315.93
2018-04-25T11:11:23.509Z,100311.60
2018-04-25T11:13:49.246Z,100314.05
2018-04-25T11:16:14.984Z,100328.25
2018-04-25T11:18:40.733Z,100330.34
2018-04-25T11:21:06.460Z,100336.78
2018-04-25T11:23:32.204Z,100343.25
2018-04-25T11:25:57.937Z,100356.58
2018-04-25T11:28:23.686Z,100354.29
2018-04-25T11:30:49.417Z,100367.96
2018-04-25T11:33:15.171Z,100372.55
2018-04-25T11:35:40.910Z,100378.73
2018-04-25T11:38:06.656Z,100383.11
2018-04-25T11:40:32.392Z,100381.48
2018-04-25T11:42:58.136Z,100395.27
2018-04-25T11:45:23.895Z,100403.21
2018-04-25T11:47:56.729Z,100411.77
2018-04-25T11:50:22.485Z,100413.09
2018-04-25T11:52:48.224Z,100426.30
2018-04-25T11:55:13.992Z,100422.06
2018-04-25T11:57:39.728Z,100425.42
2018-04-25T12:00:05.468Z,100435.14
2018-04-25T12:02:31.198Z,100426.66
2018-04-25T12:04:56.969Z,100429.62
2018-04-25T12:07:22.684Z,100435.06
2018-04-25T12:09:48.420Z,100437.53
2018-04-25T12:12:14.166Z,100444.92
2018-04-25T12:14:39.908Z,100447.84
2018-04-25T12:17:05.655Z,100444.52
2018-04-25T12:19:31.433Z,100454.03
2018-04-25T12:21:57.168Z,100466.40
2018-04-25T12:24:22.977Z,100464.64
2018-04-25T12:26:48.653Z,100469.57
2018-04-25T12:29:14.394Z,100481.20
2018-04-25T12:31:40.127Z,100488.23
2018-04-25T12:34:05.863Z,100486.38
2018-04-25T12:36:31.592Z,100493.41
2018-04-25T12:38:57.327Z,100490.11
2018-04-25T12:41:23.052Z,100491.09
2018-04-25T12:43:48.771Z,100494.36
2018-04-25T12:46:14.504Z,100501.58
2018-04-25T12:48:40.236Z,100500.86
2018-04-25T12:51:05.972Z,100512.70
2018-04-25T12:53:31.708Z,100518.77
2018-04-25T12:55:57.461Z,100524.17
2018-04-25T12:58:23.202Z,100521.56
2018-04-25T13:00:48.964Z,100521.69
2018-04-25T13:03:14.707Z,100529.30
2018-04-25T13:05:40.467Z,100537.47
2018-04-25T13:08:06.212Z,100537.95
2018-04-25T13:10:31.949Z,100540.36
2018-04-25T13:12:57.695Z,100540.58
2018-04-25T13:15:23.432Z,100543.91
2018-04-25T13:17:49.157Z,100550.53
2018-04-25T13:20:14.895Z,100552.34
2018-04-25T13:22:40.632Z,100566.21
2018-04-25T13:25:06.385Z,100563.22
2018-04-25T13:27:32.271Z,100575.41
2018-04-25T13:29:58.143Z,100568.91
2018-04-25T13:32:23.932Z,100567.11
2018-04-25T13:34:49.683Z,100563.41
2018-04-25T13:37:15.425Z,100562.61
2018-04-25T13:39:41.176Z,100569.78
2018-04-25T13:42:06.912Z,100574.77
2018-04-25T13:44:32.701Z,100585.31
2018-04-25T13:46:58.453Z,100592.13
2018-04-25T13:49:24.374Z,100596.20
2018-04-25T13:51:51.388Z,100598.36
2018-04-25T13:54:18.696Z,100602.90
2018-04-25T13:56:44.440Z,100607.64
2018-04-25T13:59:10.184Z,100605.69
2018-04-25T14:01:35.932Z,100614.58
2018-04-25T14:04:01.675Z,100610.61
2018-04-25T14:06:27.425Z,100610.13
2018-04-25T14:08:53.168Z,100618.11
2018-04-25T14:11:18.935Z,100613.48
2018-04-25T14:13:44.720Z,100619.42
2018-04-25T14:16:10.480Z,100624.50
2018-04-25T14:18:36.210Z,100625.55
2018-04-25T14:21:01.959Z,100624.05
2018-04-25T14:23:27.708Z,100626.63
2018-04-25T14:25:53.449Z,100623.07
2018-04-25T14:28:19.196Z,100633.95
2018-04-25T14:30:44.952Z,100643.94
2018-04-25T14:33:10.699Z,100630.15
2018-04-25T14:35:36.468Z,100629.33
2018-04-25T14:38:02.212Z,100638.52
2018-04-25T14:40:27.978Z,100648.66
2018-04-25T14:42:53.717Z,100649.10
2018-04-25T14:45:19.444Z,100656.89
2018-04-25T14:47:45.180Z,100660.77
2018-04-25T14:50:10.912Z,100664.29
2018-04-25T14:52:36.647Z,100662.42
2018-04-25T14:55:02.414Z,100667.27
2018-04-25T14:57:28.162Z,100664.72
2018-04-25T14:59:53.909Z,100668.02
2018-04-25T15:02:19.654Z,100672.09
2018-04-25T15:04:45.390Z,100675.45
2018-04-25T15:07:11.119Z,100671.25
2018-04-25T15:09:36.864Z,100668.19
2018-04-25T15:12:02.608Z,100669.45
2018-04-25T15:14:28.345Z,100667.83
2018-04-25T15:16:54.093Z,100669.64
2018-04-25T15:19:19.859Z,100674.31
2018-04-25T15:21:45.625Z,100679.01
2018-04-25T15:24:11.352Z,100675.08
2018-04-25T15:26:37.216Z,100676.75
2018-04-25T15:29:02.967Z,100674.55
2018-04-25T15:31:28.704Z,100691.08
2018-04-25T15:33:54.441Z,100693.48
2018-04-25T15:36:20.189Z,100693.97
2018-04-25T15:38:45.943Z,100687.88
2018-04-25T15:41:11.688Z,100697.30
2018-04-25T15:43:37.427Z,100694.80
2018-04-25T15:46:03.222Z,100702.11
2018-04-25T15:48:28.986Z,100693.05
2018-04-25T15:50:54.743Z,100704.02
2018-04-25T15:53:20.514Z,100702.41
2018-04-25T15:55:46.261Z,100698.69
2018-04-25T15:58:11.987Z,100698.77
2018-04-25T16:00:37.775Z,100706.07
2018-04-25T16:03:03.514Z,100699.49
2018-04-25T16:05:29.251Z,100703.41
2018-04-25T16:07:54.987Z,100703.80
2018-04-25T16:10:20.739Z,100705.13
2018-04-25T16:12:46.481Z,100704.56
2018-04-25T16:15:12.235Z,100705.34
2018-04-25T16:17:37.990Z,100709.41
2018-04-25T16:20:03.721Z,100711.08
2018-04-25T16:22:29.461Z,100712.08
2018-04-25T16:24:55.220Z,100710.77
2018-04-25T16:27:20.956Z,100714.38
2018-04-25T16:29:46.693Z,100706.25
2018-04-25T16:32:12.503Z,100705.42
2018-04-25T16:34:38.687Z,100707.05
2018-04-25T16:37:04.931Z,100700.50
2018-04-25T16:39:30.691Z,100697.70
2018-04-25T16:41:56.466Z,100702.25
2018-04-25T16:44:22.195Z,100701.37
2018-04-25T16:46:48.073Z,100698.99
2018-04-25T16:49:13.804Z,100698.63
2018-04-25T16:51:39.547Z,100689.73
2018-04-25T16:54:05.292Z,100685.34
2018-04-25T16:56:31.053Z,100686.41
2018-04-25T16:58:56.780Z,100682.27
2018-04-25T17:01:22.524Z,100686.87
2018-04-25T17:03:48.264Z,100683.66
2018-04-25T17:06:14.025Z,100685.72
2018-04-25T17:08:39.776Z,100675.77
2018-04-25T17:11:05.529Z,100669.81
2018-04-25T17:13:31.260Z,100664.42
2018-04-25T17:15:57.026Z,100659.36
2018-04-25T17:18:22.780Z,100663.02
2018-04-25T17:20:48.571Z,100666.19
2018-04-25T17:23:15.275Z,100662.05
2018-04-25T17:25:41.024Z,100661.79
2018-04-25T17:28:06.756Z,100655.31
2018-04-25T17:30:32.493Z,100657.69
2018-04-25T17:32:58.240Z,100656.19
2018-04-25T17:35:23.974Z,100657.16
2018-04-25T17:37:49.720Z,100652.80
2018-04-25T17:40:15.452Z,100652.18
2018-04-25T17:42:41.257Z,100660.23
2018-04-25T17:45:06.956Z,100654.09
2018-04-25T17:47:32.700Z,100645.91
2018-04-25T17:49:58.448Z,100650.09
2018-04-25T17:52:24.210Z,100656.74
2018-04-25T17:54:49.944Z,100648.11
2018-04-25T17:57:15.714Z,100647.55
2018-04-25T17:59:41.448Z,100651.72
2018-04-25T18:02:07.195Z,100652.80
2018-04-25T18:04:32.924Z,100649.41
2018-04-25T18:06:58.671Z,100656.97
2018-04-25T18:09:24.409Z,100655.25
2018-04-25T18:11:50.175Z,100656.81
2018-04-25T18:14:15.929Z,100660.02
2018-04-25T18:16:41.672Z,100660.86
2018-04-25T18:19:07.427Z,100666.46
2018-04-25T18:21:33.156Z,100654.57
2018-04-25T18:23:58.913Z,100662.38
2018-04-25T18:26:24.660Z,100665.18
2018-04-25T18:28:51.485Z,100664.86
2018-04-25T18:31:17.241Z,100662.34
2018-04-25T18:33:43.659Z,100665.30
2018-04-25T18:36:09.411Z,100658.81
2018-04-25T18:38:35.236Z,100661.89
2018-04-25T18:41:00.933Z,100660.69
2018-04-25T18:43:26.677Z,100660.25
2018-04-25T18:45:52.404Z,100664.61
2018-04-25T18:48:18.146Z,100664.06
2018-04-25T18:50:43.880Z,100664.02
2018-04-25T18:53:09.626Z,100664.57
2018-04-25T18:55:35.380Z,100669.78
2018-04-25T18:58:01.146Z,100668.45
2018-04-25T19:00:26.892Z,100660.25
2018-04-25T19:02:52.629Z,100668.50
2018-04-25T19:05:18.618Z,100669.86
2018-04-25T19:07:44.376Z,100669.05
2018-04-25T19:10:10.122Z,100664.84
2018-04-25T19:12:35.868Z,100665.66
2018-04-25T19:15:01.605Z,100671.56
2018-04-25T19:17:27.369Z,100675.45
2018-04-25T19:19:53.093Z,100673.32
2018-04-25T19:22:18.842Z,100679.20
2018-04-25T19:24:44.593Z,100673.84
2018-04-25T19:27:10.312Z,100679.16
2018-04-25T19:29:36.860Z,100675.75
2018-04-25T19:32:02.598Z,100678.60
2018-04-25T19:34:28.340Z,100676.08
2018-04-25T19:36:54.080Z,100674.35
2018-04-25T19:39:19.824Z,100677.11
2018-04-25T19:41:45.552Z,100673.98
2018-04-25T19:44:11.295Z,100673.98
2018-04-25T19:46:37.081Z,100672.23
2018-04-25T19:49:02.773Z,100673.91
2018-04-25T19:51:28.505Z,100675.75
2018-04-25T19:53:54.261Z,100677.03
2018-04-25T19:56:20.016Z,100671.34
2018-04-25T19:58:45.776Z,100675.60
2018-04-25T20:01:11.508Z,100672.08
2018-04-25T20:03:37.248Z,100676.99
2018-04-25T20:06:02.984Z,100680.55
2018-04-25T20:08:28.802Z,100677.95
2018-04-25T20:10:54.496Z,100678.34
2018-04-25T20:13:20.244Z,100679.06
2018-04-25T20:15:45.981Z,100678.25
2018-04-25T20:18:11.723Z,100673.55
2018-04-25T20:20:37.460Z,100677.16
2018-04-25T20:23:03.211Z,100677.27
2018-04-25T20:25:28.960Z,100674.11
2018-04-25T20:27:54.688Z,100673.89
2018-04-25T20:30:20.428Z,100671.03
2018-04-25T20:32:46.155Z,100670.75
2018-04-25T20:35:11.896Z,100671.66
2018-04-25T20:37:37.656Z,100670.19
2018-04-25T20:40:03.413Z,100674.90
2018-04-25T20:42:29.152Z,100676.15
2018-04-25T20:44:54.886Z,100673.08
2018-04-25T20:47:20.640Z,100670.34
2018-04-25T20:49:46.391Z,100673.89
2018-04-25T20:52:12.138Z,100675.68
2018-04-25T20:54:37.893Z,100674.86
2018-04-25T20:57:03.622Z,100677.09
2018-04-25T20:59:29.373Z,100677.22
2018-04-25T21:01:55.114Z,100677.24
2018-04-25T21:04:20.853Z,100679.06
2018-04-25T21:06:46.585Z,100677.47
2018-04-25T21:09:12.332Z,100684.16
2018-04-25T21:11:38.085Z,100671.88
2018-04-25T21:14:03.832Z,100678.91
2018-04-25T21:16:29.572Z,100670.22
2018-04-25T21:18:55.308Z,100669.72
2018-04-25T21:21:21.049Z,100669.69
2018-04-25T21:23:46.784Z,100668.55
2018-04-25T21:26:12.513Z,100662.66
2018-04-25T21:28:38.243Z,100662.72
2018-04-25T21:31:03.988Z,100663.13
2018-04-25T21:33:29.736Z,100661.80
2018-04-25T21:35:55.484Z,100664.86
2018-04-25T21:38:21.199Z,100660.43
2018-04-25T21:40:46.941Z,100661.75
2018-04-25T21:43:12.683Z,100662.94
2018-04-25T21:45:38.684Z,100661.05
2018-04-25T21:48:04.446Z,100667.27
2018-04-25T21:50:30.205Z,100669.94
2018-04-25T21:52:55.928Z,100664.25
2018-04-25T21:55:21.684Z,100665.67
2018-04-25T21:57:47.450Z,100664.26
2018-04-25T22:00:13.200Z,100672.16
2018-04-25T22:02:39.083Z,100667.11
2018-04-25T22:05:05.551Z,100670.63
2018-04-25T22:07:31.400Z,100665.01
2018-04-25T22:09:57.157Z,100671.25
2018-04-25T22:12:22.995Z,100665.78
2018-04-25T22:14:48.736Z,100672.24
2018-04-25T22:17:14.473Z,100674.16
2018-04-25T22:19:40.284Z,100681.29
2018-04-25T22:22:06.031Z,100680.03
2018-04-25T22:24:31.793Z,100677.50
2018-04-25T22:26:57.539Z,100679.41
2018-04-25T22:29:23.284Z,100680.39
2018-04-25T22:31:49.016Z,100682.28
2018-04-25T22:34:14.814Z,100680.69
2018-04-25T22:36:40.578Z,100682.52
2018-04-25T22:39:06.325Z,100684.80
2018-04-25T22:41:32.085Z,100689.13
2018-04-25T22:43:57.824Z,100685.69
2018-04-25T22:46:23.567Z,100694.09
2018-04-25T22:48:49.316Z,100685.92
2018-04-25T22:51:15.057Z,100694.72
2018-04-25T22:53:40.799Z,100693.09
2018-04-25T22:56:06.552Z,100687.77
2018-04-25T22:58:32.359Z,100692.08
2018-04-25T23:00:58.024Z,100692.25
2018-04-25T23:03:23.753Z,100690.06
2018-04-25T23:05:49.496Z,100691.86
2018-04-25T23:08:15.234Z,100691.94
2018-04-25T23:10:40.972Z,100687.66
2018-04-25T23:13:06.712Z,100688.55
2018-04-25T23:15:32.473Z,100688.61
2018-04-25T23:17:58.218Z,100692.47
2018-04-25T23:20:23.982Z,100698.65
2018-04-25T23:22:49.734Z,100699.69
2018-04-25T23:25:15.487Z,100705.76
2018-04-25T23:27:41.212Z,100700.89
2018-04-25T23:30:06.972Z,100701.45
2018-04-25T23:32:32.711Z,100699.02
2018-04-25T23:34:58.458Z,100700.36
2018-04-25T23:37:24.191Z,100706.47
2018-04-25T23:39:49.932Z,100708.69
2018-04-25T23:42:15.652Z,100705.64
2018-04-25T23:44:41.389Z,100706.03
2018-04-25T23:47:07.131Z,100703.00
2018-04-25T23:49:32.866Z,100705.59
2018-04-25T23:51:58.612Z,100710.09
2018-04-25T23:54:24.353Z,100706.06
2018-04-25T23:56:50.108Z,100698.64
2018-04-25T23:59:15.850Z,100702.98
